Almont, North Dakota
Current Conditions -  °F | °C
As of 10:55 AM on Friday 24 Oct 2014 (Local Time) from KD57 Reporting Station
Clear Clear  
Wind Chill: 63°   Ceiling: Unl
Heat Index: 63°   Visibility: 10mi
Dew Point: 37°   Wind: 20mph
Humidity: 39%   Direction: 310°NW
Pressure: 29.93"   Gusts: NA
Location:  46.73°N, 101.5°W
Report Text: KD57 241655Z AUTO 31017KT 10SM CLR 17/03 A2993 RMK AO2 TSNO
Loading
Personal Weather Stations






























Interactive Weather Map
Tropical Storm Tracking
New forecast layout! Learn more

10-Day Weather Forecast

Advertisements
Track Severe Weather on mobile